Time;durP1;ratioP1;P1;durP2;ratioP2;P2;SDS_P1;SDS_P2;PMS_P1;PMS_P2;Temp;Humidity;BMP_temperature;BMP_pressure;BME280_temperature;BME280_humidity;BME280_pressure;Samples;Min_cycle;Max_cycle;Signal;HPM_P1;HPM_P2
2022/09/14 00:05:24;;;;;;;13.87;5.70;;;19.30;99.90;;;;;;20676109;28;20735;-79
2022/09/14 00:15:26;;;;;;;6.90;4.23;;;19.30;99.90;;;;;;20680495;28;20305;-76
2022/09/14 00:25:29;;;;;;;7.10;5.13;;;19.30;99.90;;;;;;20676957;28;20219;-78
2022/09/14 00:35:33;;;;;;;7.80;4.73;;;19.30;99.90;;;;;;20678588;28;20235;-73
2022/09/14 00:45:35;;;;;;;8.60;5.47;;;19.30;99.90;;;;;;20678647;28;20222;-71
2022/09/14 00:55:37;;;;;;;6.90;5.10;;;19.30;99.90;;;;;;20677716;28;20245;-70
2022/09/14 01:06:03;;;;;;;6.20;5.13;;;19.30;99.90;;;;;;20677359;28;20764;-72
2022/09/14 01:16:20;;;;;;;8.13;5.80;;;19.30;99.90;;;;;;20675388;28;20763;-69
2022/09/14 01:26:52;;;;;;;8.63;5.43;;;19.30;99.90;;;;;;20675501;28;20266;-70
2022/09/14 01:37:11;;;;;;;12.33;5.10;;;19.20;99.90;;;;;;20674985;28;20276;-72
2022/09/14 01:47:35;;;;;;;7.30;5.70;;;19.20;99.90;;;;;;20673942;28;20216;-70
2022/09/14 01:57:45;;;;;;;8.50;6.37;;;19.10;99.90;;;;;;20672967;28;20600;-70
2022/09/14 02:07:47;;;;;;;10.83;6.17;;;19.10;99.90;;;;;;20672226;28;20214;-71
2022/09/14 02:17:49;;;;;;;7.20;5.70;;;19.00;99.90;;;;;;20669745;28;20246;-70
2022/09/14 02:27:51;;;;;;;8.90;7.57;;;19.00;99.90;;;;;;20667730;28;20215;-70
2022/09/14 02:38:18;;;;;;;10.57;6.97;;;18.90;99.90;;;;;;20669561;28;20656;-72
2022/09/14 02:48:31;;;;;;;11.17;8.40;;;18.90;99.90;;;;;;20669237;28;20243;-70
2022/09/14 02:58:39;;;;;;;12.20;7.13;;;18.90;99.90;;;;;;20668696;28;20208;-77
2022/09/14 03:08:42;;;;;;;10.20;7.83;;;18.90;99.90;;;;;;20651047;28;20231;-70
2022/09/14 03:18:44;;;;;;;11.40;8.50;;;18.90;99.90;;;;;;20650132;28;20246;-70
2022/09/14 03:28:50;;;;;;;13.20;9.13;;;18.90;99.90;;;;;;20667209;28;20267;-70
2022/09/14 03:38:53;;;;;;;12.20;8.77;;;18.90;99.90;;;;;;20675141;28;20207;-70
2022/09/14 03:48:55;;;;;;;14.23;9.60;;;18.90;99.90;;;;;;20682821;28;20244;-71
2022/09/14 03:58:56;;;;;;;13.17;9.20;;;18.90;99.90;;;;;;20682210;28;20230;-70
2022/09/14 04:08:58;;;;;;;13.80;9.87;;;18.80;99.90;;;;;;20681098;28;20350;-69
2022/09/14 04:19:00;;;;;;;14.13;10.20;;;18.80;99.90;;;;;;20678450;28;20230;-69
2022/09/14 04:29:02;;;;;;;13.33;9.90;;;18.80;99.90;;;;;;20678357;28;20230;-71
2022/09/14 04:39:04;;;;;;;14.37;9.90;;;18.80;99.90;;;;;;20660342;28;20211;-70
2022/09/14 04:49:05;;;;;;;12.60;9.97;;;18.80;99.90;;;;;;20676651;28;20658;-73
2022/09/14 04:59:08;;;;;;;14.13;9.73;;;18.80;99.90;;;;;;20677078;28;20671;-73
2022/09/14 05:09:13;;;;;;;11.93;9.00;;;18.80;99.90;;;;;;20675637;28;20243;-70
2022/09/14 05:19:17;;;;;;;15.87;9.10;;;18.80;99.90;;;;;;20675047;28;20238;-71
2022/09/14 05:29:18;;;;;;;12.77;9.50;;;18.70;99.90;;;;;;20674257;28;20574;-71
2022/09/14 05:39:21;;;;;;;12.97;9.77;;;18.70;99.90;;;;;;20672255;28;20649;-70
2022/09/14 05:49:24;;;;;;;14.60;9.63;;;18.80;99.90;;;;;;20671915;28;20240;-69
2022/09/14 05:59:26;;;;;;;14.70;9.60;;;18.70;99.90;;;;;;20670960;28;20212;-71
2022/09/14 06:09:28;;;;;;;14.93;9.90;;;18.70;99.90;;;;;;20670033;28;20234;-72
2022/09/14 06:19:33;;;;;;;15.63;10.47;;;18.70;99.90;;;;;;20667139;28;20702;-73
2022/09/14 06:29:35;;;;;;;12.43;9.63;;;18.70;99.90;;;;;;20663753;28;20269;-78
2022/09/14 06:39:37;;;;;;;14.67;9.77;;;18.70;99.90;;;;;;20665914;28;20211;-72
2022/09/14 06:49:39;;;;;;;14.07;9.73;;;18.70;99.90;;;;;;20666635;28;20240;-70
2022/09/14 06:59:40;;;;;;;12.77;8.97;;;18.80;99.90;;;;;;20666106;28;20207;-73
2022/09/14 07:09:42;;;;;;;13.53;8.40;;;18.80;99.90;;;;;;20664764;28;20240;-70
2022/09/14 07:19:43;;;;;;;14.27;9.20;;;18.80;99.90;;;;;;20664974;28;20242;-70
2022/09/14 07:29:46;;;;;;;13.23;9.50;;;18.80;99.90;;;;;;20664571;28;20245;-69
2022/09/14 07:39:47;;;;;;;12.20;9.20;;;18.80;99.90;;;;;;20664188;28;20212;-71
2022/09/14 07:49:49;;;;;;;12.77;10.47;;;18.80;99.90;;;;;;20663823;28;20232;-70
2022/09/14 07:59:51;;;;;;;13.07;9.63;;;18.90;99.90;;;;;;20663587;28;20218;-70
2022/09/14 08:09:52;;;;;;;16.60;10.90;;;18.90;99.90;;;;;;20662394;28;20305;-71
2022/09/14 08:19:54;;;;;;;17.73;10.83;;;19.10;99.90;;;;;;20662819;28;20240;-72
2022/09/14 08:29:56;;;;;;;14.37;9.33;;;19.20;99.90;;;;;;20673055;28;20688;-70
2022/09/14 08:39:57;;;;;;;12.00;9.10;;;19.40;99.90;;;;;;20674062;28;20216;-71
2022/09/14 08:50:11;;;;;;;13.80;9.20;;;19.50;99.90;;;;;;20676174;28;20293;-71
2022/09/14 09:00:16;;;;;;;6.27;5.37;;;19.70;99.90;;;;;;20675812;28;20669;-71
2022/09/14 09:10:19;;;;;;;7.23;5.70;;;19.70;99.90;;;;;;20674568;28;20248;-70
2022/09/14 09:20:26;;;;;;;6.47;5.20;;;19.70;99.90;;;;;;20674255;28;20235;-71
2022/09/14 09:30:29;;;;;;;5.07;4.10;;;19.70;99.90;;;;;;20673678;28;20239;-70
2022/09/14 09:40:36;;;;;;;5.63;4.97;;;19.80;99.90;;;;;;20671777;28;20256;-72
2022/09/14 09:50:47;;;;;;;4.60;3.00;;;19.90;99.90;;;;;;20671927;28;20291;-69
2022/09/14 10:01:06;;;;;;;3.90;3.13;;;20.10;99.90;;;;;;20671239;28;20805;-71
2022/09/14 10:11:29;;;;;;;5.57;3.20;;;20.10;99.90;;;;;;20669915;28;20325;-74
2022/09/14 10:21:31;;;;;;;3.90;3.20;;;20.30;99.90;;;;;;20649605;28;20238;-68
2022/09/14 10:31:43;;;;;;;7.17;3.27;;;20.50;99.90;;;;;;20667127;28;20292;-71
2022/09/14 10:42:13;;;;;;;8.07;3.40;;;20.70;99.90;;;;;;20667138;28;20209;-68
2022/09/14 10:52:33;;;;;;;3.07;2.80;;;20.80;99.90;;;;;;20665869;28;20260;-69
2022/09/14 11:03:13;;;;;;;3.10;2.90;;;20.80;99.90;;;;;;20665605;28;20671;-71
2022/09/14 11:13:33;;;;;;;4.93;3.20;;;21.10;99.90;;;;;;20663072;28;20250;-70
2022/09/14 11:23:45;;;;;;;5.30;3.70;;;21.30;99.90;;;;;;20664737;28;20697;-70
2022/09/14 11:33:59;;;;;;;4.50;4.10;;;21.20;99.90;;;;;;20663424;28;20297;-70
2022/09/14 11:44:09;;;;;;;9.00;6.10;;;21.20;99.90;;;;;;20663252;28;20209;-71
2022/09/14 11:54:17;;;;;;;5.87;5.30;;;21.60;99.90;;;;;;20661533;28;20233;-71
2022/09/14 12:04:19;;;;;;;5.87;5.30;;;21.60;99.90;;;;;;20674273;28;20272;-72
2022/09/14 12:14:27;;;;;;;5.77;5.10;;;21.60;99.90;;;;;;20661581;28;20723;-76
2022/09/14 12:24:29;;;;;;;6.00;5.40;;;21.70;99.90;;;;;;20676206;28;20209;-69
2022/09/14 12:34:32;;;;;;;6.80;5.90;;;22.10;99.90;;;;;;20675900;28;20312;-65
2022/09/14 12:44:37;;;;;;;10.20;5.60;;;22.30;99.90;;;;;;20676764;28;20217;-65
2022/09/14 12:55:07;;;;;;;8.80;7.00;;;22.30;99.90;;;;;;20676055;28;20261;-65
2022/09/14 13:05:16;;;;;;;9.60;5.77;;;22.20;99.90;;;;;;20661105;28;20616;-68
2022/09/14 13:15:20;;;;;;;6.57;5.93;;;22.10;99.90;;;;;;20669646;28;20249;-67
2022/09/14 13:25:31;;;;;;;12.73;6.23;;;22.10;99.90;;;;;;20672724;28;20872;-68
2022/09/14 13:35:49;;;;;;;13.60;6.57;;;22.00;99.90;;;;;;20671011;28;20229;-68
2022/09/14 13:45:51;;;;;;;9.30;6.83;;;21.90;99.90;;;;;;20670029;28;20217;-71
2022/09/14 13:55:53;;;;;;;14.70;7.70;;;21.90;99.90;;;;;;20671479;28;20329;-68
2022/09/14 14:05:55;;;;;;;6.47;5.80;;;21.90;99.90;;;;;;20669456;28;20214;-69
2022/09/14 14:16:18;;;;;;;12.20;8.10;;;21.90;99.90;;;;;;20668488;28;20250;-73
2022/09/14 14:26:26;;;;;;;13.20;8.50;;;21.80;99.90;;;;;;20662719;28;20209;-72
2022/09/14 14:36:27;;;;;;;14.37;10.97;;;21.70;99.90;;;;;;20663278;28;20241;-71
2022/09/14 14:46:29;;;;;;;12.07;6.83;;;21.50;99.90;;;;;;20666002;28;20216;-70
2022/09/14 14:56:31;;;;;;;9.03;4.83;;;21.10;99.90;;;;;;20667751;28;20242;-67
2022/09/14 15:06:32;;;;;;;9.77;4.30;;;20.90;99.90;;;;;;20667689;28;20605;-71
2022/09/14 15:16:34;;;;;;;4.77;3.07;;;20.80;99.90;;;;;;20665264;28;20307;-72
2022/09/14 15:26:36;;;;;;;8.63;3.77;;;20.70;99.90;;;;;;20664946;28;20215;-72
2022/09/14 15:36:52;;;;;;;6.00;2.70;;;20.60;99.90;;;;;;20665622;28;20241;-72
2022/09/14 15:46:55;;;;;;;3.73;2.50;;;20.70;99.90;;;;;;20665074;28;20216;-69
2022/09/14 15:56:58;;;;;;;11.93;7.10;;;20.60;99.90;;;;;;20664704;28;20244;-73
2022/09/14 16:07:00;;;;;;;22.73;14.53;;;20.70;99.90;;;;;;20664554;28;20209;-70
2022/09/14 16:17:03;;;;;;;3.50;2.30;;;20.80;99.90;;;;;;20664208;28;20244;-79
2022/09/14 16:27:05;;;;;;;3.23;2.30;;;20.80;99.90;;;;;;20663337;28;20702;-77
2022/09/14 16:37:07;;;;;;;5.23;2.80;;;20.80;99.90;;;;;;20645263;28;20742;-73
2022/09/14 16:47:09;;;;;;;3.83;2.20;;;20.80;99.90;;;;;;20671968;28;20217;-73
2022/09/14 16:57:10;;;;;;;4.23;2.00;;;20.80;99.90;;;;;;20677989;28;20641;-74
2022/09/14 17:07:12;;;;;;;3.23;1.80;;;20.70;99.90;;;;;;20677620;28;20216;-72
2022/09/14 17:17:14;;;;;;;4.40;2.80;;;20.80;99.90;;;;;;20676128;28;20243;-74
2022/09/14 17:27:17;;;;;;;6.13;2.10;;;20.70;99.90;;;;;;20675275;28;20610;-74
2022/09/14 17:37:19;;;;;;;5.17;2.07;;;20.70;99.90;;;;;;20674371;28;20637;-77
2022/09/14 17:47:21;;;;;;;7.70;2.10;;;20.60;99.90;;;;;;20672977;28;20220;-73
2022/09/14 17:57:23;;;;;;;4.60;2.63;;;20.60;99.90;;;;;;20671119;28;20637;-76
2022/09/14 18:07:25;;;;;;;5.80;2.03;;;20.40;99.90;;;;;;20670992;28;20209;-75
2022/09/14 18:17:27;;;;;;;3.30;2.30;;;20.40;99.90;;;;;;20671634;28;20307;-72
2022/09/14 18:27:30;;;;;;;7.70;2.20;;;20.30;99.90;;;;;;20673764;28;20275;-76
2022/09/14 18:37:32;;;;;;;2.70;2.40;;;20.30;99.90;;;;;;20684645;28;20315;-71
2022/09/14 18:47:33;;;;;;;5.63;2.60;;;20.30;99.90;;;;;;20674068;28;20212;-78
2022/09/14 18:57:35;;;;;;;3.13;2.30;;;20.20;99.90;;;;;;20668015;28;20240;-77
2022/09/14 19:07:37;;;;;;;6.63;3.23;;;20.10;99.90;;;;;;20667862;28;20221;-75
2022/09/14 19:17:38;;;;;;;5.03;2.77;;;20.10;99.90;;;;;;20665112;28;20272;-72
2022/09/14 19:27:40;;;;;;;3.40;2.77;;;20.00;99.90;;;;;;20664586;28;20244;-72
2022/09/14 19:37:42;;;;;;;7.53;3.53;;;20.00;99.90;;;;;;20663899;28;20264;-72
2022/09/14 19:47:43;;;;;;;7.60;3.50;;;20.00;99.90;;;;;;20664494;28;20211;-74
2022/09/14 19:57:47;;;;;;;7.90;2.70;;;19.90;99.90;;;;;;20664551;28;20706;-73
2022/09/14 20:07:48;;;;;;;4.83;2.60;;;19.90;99.90;;;;;;20663497;28;20673;-73
2022/09/14 20:17:52;;;;;;;4.50;2.60;;;19.90;99.90;;;;;;20666020;28;20592;-72
2022/09/14 20:27:54;;;;;;;9.93;2.70;;;20.00;99.90;;;;;;20675899;28;20212;-75
2022/09/14 20:37:56;;;;;;;4.50;2.70;;;20.00;99.90;;;;;;20677464;28;20693;-72
2022/09/14 20:47:58;;;;;;;5.20;2.97;;;20.00;99.90;;;;;;20676892;28;20274;-72
2022/09/14 20:58:00;;;;;;;4.87;2.60;;;20.00;99.90;;;;;;20675856;28;20320;-72
2022/09/14 21:08:02;;;;;;;4.20;2.57;;;19.90;99.90;;;;;;20675386;28;20216;-72
2022/09/14 21:18:04;;;;;;;2.90;2.23;;;20.00;99.90;;;;;;20674731;28;20245;-72
2022/09/14 21:28:05;;;;;;;7.03;2.33;;;20.00;99.90;;;;;;20674845;28;20233;-73
2022/09/14 21:38:08;;;;;;;7.50;2.20;;;19.90;99.90;;;;;;20675228;28;20255;-72
2022/09/14 21:48:09;;;;;;;4.40;2.60;;;19.90;99.90;;;;;;20674658;28;20219;-72
2022/09/14 21:58:11;;;;;;;3.50;2.17;;;19.80;99.90;;;;;;20673545;28;20232;-74
2022/09/14 22:08:12;;;;;;;2.37;2.17;;;19.80;99.90;;;;;;20672795;28;20210;-73
2022/09/14 22:18:14;;;;;;;2.40;2.20;;;19.70;99.90;;;;;;20671999;28;20250;-71
2022/09/14 22:28:16;;;;;;;3.57;2.50;;;19.70;99.90;;;;;;20670892;28;20212;-71
2022/09/14 22:38:22;;;;;;;5.37;2.53;;;19.70;99.90;;;;;;20670314;28;20248;-72
2022/09/14 22:48:24;;;;;;;3.80;2.60;;;19.70;99.90;;;;;;20669778;28;20203;-71
2022/09/14 22:58:26;;;;;;;3.63;2.70;;;19.60;99.90;;;;;;20668758;28;20248;-72
2022/09/14 23:08:28;;;;;;;4.77;2.33;;;19.60;99.90;;;;;;20669746;28;20212;-72
2022/09/14 23:18:30;;;;;;;2.63;2.10;;;19.60;99.90;;;;;;20668952;28;20254;-73
2022/09/14 23:28:33;;;;;;;4.00;2.07;;;19.60;99.90;;;;;;20667717;28;20212;-73
2022/09/14 23:38:35;;;;;;;2.73;2.17;;;19.60;99.90;;;;;;20666613;28;20251;-73
2022/09/14 23:48:37;;;;;;;4.30;2.23;;;19.60;99.90;;;;;;20666705;28;20209;-72
2022/09/14 23:58:40;;;;;;;5.27;2.27;;;19.50;99.90;;;;;;20678629;28;20776;-72
